Time;durP1;ratioP1;P1;durP2;ratioP2;P2;SDS_P1;SDS_P2;PMS_P1;PMS_P2;Temp;Humidity;BMP_temperature;BMP_pressure;BME280_temperature;BME280_humidity;BME280_pressure;Samples;Min_cycle;Max_cycle;Signal;HPM_P1;HPM_P2
2023/06/25 00:02:00;;;;;;;11.03;7.70;;;18.80;84.40;;;;;;4970708;28;20035;-70
2023/06/25 00:04:26;;;;;;;9.60;7.57;;;18.80;84.70;;;;;;4954085;28;20050;-70
2023/06/25 00:06:51;;;;;;;10.80;7.33;;;18.70;84.80;;;;;;4969345;28;20038;-70
2023/06/25 00:09:17;;;;;;;14.67;7.80;;;18.70;84.80;;;;;;4972390;28;20050;-70
2023/06/25 00:11:43;;;;;;;10.87;7.67;;;18.70;84.50;;;;;;4968703;28;20515;-70
2023/06/25 00:14:08;;;;;;;10.67;7.60;;;18.60;84.60;;;;;;4948108;28;20102;-70
2023/06/25 00:16:34;;;;;;;13.93;8.00;;;18.60;85.10;;;;;;4969676;28;20154;-70
2023/06/25 00:19:00;;;;;;;10.33;8.50;;;18.60;85.20;;;;;;4974008;28;20074;-70
2023/06/25 00:21:27;;;;;;;11.07;9.17;;;18.60;85.20;;;;;;4987818;28;20100;-70
2023/06/25 00:23:53;;;;;;;15.77;10.30;;;18.60;84.90;;;;;;4984080;28;20360;-70
2023/06/25 00:26:18;;;;;;;12.10;9.30;;;18.50;85.10;;;;;;4987953;28;20360;-70
2023/06/25 00:28:44;;;;;;;12.50;9.70;;;18.50;85.10;;;;;;4974288;28;20046;-70
2023/06/25 00:31:12;;;;;;;14.60;9.67;;;18.40;84.90;;;;;;4973170;28;20050;-70
2023/06/25 00:33:38;;;;;;;12.63;9.73;;;18.40;85.10;;;;;;4974843;28;20320;-70
2023/06/25 00:36:08;;;;;;;14.27;10.33;;;18.30;85.40;;;;;;4989801;28;20710;-70
2023/06/25 00:38:38;;;;;;;12.70;9.93;;;18.30;85.20;;;;;;4978581;28;20327;-70
2023/06/25 00:41:10;;;;;;;13.30;10.37;;;18.30;85.60;;;;;;4956114;28;20282;-70
2023/06/25 00:43:40;;;;;;;14.13;10.37;;;18.20;85.60;;;;;;4968520;28;20631;-70
2023/06/25 00:46:12;;;;;;;18.07;11.10;;;18.20;85.40;;;;;;4988167;28;20277;-70
2023/06/25 00:48:40;;;;;;;15.97;11.83;;;18.20;85.70;;;;;;4968858;28;20812;-70
2023/06/25 00:51:05;;;;;;;14.23;10.80;;;18.20;86.10;;;;;;4981055;28;20297;-70
2023/06/25 00:53:36;;;;;;;14.63;10.80;;;18.10;86.30;;;;;;4967441;28;20284;-70
2023/06/25 00:56:03;;;;;;;16.03;10.90;;;18.10;86.10;;;;;;4988626;28;20442;-70
2023/06/25 00:58:28;;;;;;;16.70;11.17;;;18.10;86.30;;;;;;4958475;28;20285;-70
2023/06/25 01:00:59;;;;;;;14.93;11.07;;;18.10;86.90;;;;;;4968673;28;20286;-70
2023/06/25 01:03:32;;;;;;;17.60;11.53;;;18.00;86.40;;;;;;4984193;28;20034;-70
2023/06/25 01:06:11;;;;;;;17.30;12.03;;;18.00;86.80;;;;;;4960289;28;20368;-70
2023/06/25 01:08:38;;;;;;;15.03;10.87;;;18.00;87.10;;;;;;4983541;28;20365;-70
2023/06/25 01:11:05;;;;;;;16.00;11.37;;;17.90;87.30;;;;;;4964515;28;20812;-70
2023/06/25 01:13:31;;;;;;;15.70;11.93;;;17.90;87.10;;;;;;4969447;28;20286;-70
2023/06/25 01:15:57;;;;;;;14.00;11.73;;;17.90;87.30;;;;;;4964200;28;20843;-70
2023/06/25 01:18:23;;;;;;;15.50;11.80;;;17.90;87.40;;;;;;4961181;28;20290;-70
2023/06/25 01:20:56;;;;;;;17.10;12.37;;;17.90;87.10;;;;;;4969835;28;20074;-70
2023/06/25 01:23:22;;;;;;;19.07;13.70;;;17.90;87.90;;;;;;4991507;28;20046;-70
2023/06/25 01:25:48;;;;;;;16.47;12.23;;;17.80;88.00;;;;;;4976275;28;20288;-70
2023/06/25 01:28:19;;;;;;;18.90;13.27;;;17.80;88.30;;;;;;4971622;28;20277;-70
2023/06/25 01:30:51;;;;;;;17.83;12.10;;;17.80;88.50;;;;;;4965145;28;20294;-70
2023/06/25 01:33:18;;;;;;;18.60;12.50;;;17.80;88.50;;;;;;4971587;28;20332;-70
2023/06/25 01:35:44;;;;;;;16.90;13.13;;;17.70;88.90;;;;;;4959235;28;20286;-70
2023/06/25 01:38:10;;;;;;;17.27;12.47;;;17.70;89.00;;;;;;4963501;28;20864;-70
2023/06/25 01:40:36;;;;;;;16.67;12.60;;;17.70;88.30;;;;;;4971197;28;20047;-70
2023/06/25 01:43:02;;;;;;;15.67;11.60;;;17.70;88.80;;;;;;4958475;28;20360;-70
2023/06/25 01:45:28;;;;;;;16.03;12.27;;;17.70;88.60;;;;;;4974755;28;20286;-70
2023/06/25 01:47:53;;;;;;;16.67;12.73;;;17.60;88.50;;;;;;4975126;28;20101;-70
2023/06/25 01:50:19;;;;;;;16.43;12.50;;;17.60;88.90;;;;;;4955116;28;20109;-70
2023/06/25 01:52:45;;;;;;;20.53;12.67;;;17.60;88.80;;;;;;4978519;28;20498;-70
2023/06/25 01:55:10;;;;;;;16.00;12.53;;;17.60;88.90;;;;;;4973756;28;20046;-70
2023/06/25 01:57:36;;;;;;;16.37;12.33;;;17.50;88.90;;;;;;4980125;28;20069;-70
2023/06/25 02:00:04;;;;;;;19.27;13.27;;;17.50;89.50;;;;;;4976783;28;20050;-70
2023/06/25 02:02:29;;;;;;;20.33;12.37;;;17.50;89.60;;;;;;4979314;28;20475;-70
2023/06/25 02:04:55;;;;;;;17.30;13.07;;;17.50;89.60;;;;;;4974303;28;20285;-70
2023/06/25 02:07:21;;;;;;;21.90;13.93;;;17.50;89.90;;;;;;4989685;28;20051;-70
2023/06/25 02:09:47;;;;;;;18.00;12.60;;;17.40;90.10;;;;;;4975146;28;20534;-70
2023/06/25 02:12:12;;;;;;;15.67;12.00;;;17.40;89.80;;;;;;4971819;28;20031;-70
2023/06/25 02:14:38;;;;;;;17.00;11.87;;;17.40;90.30;;;;;;4970230;28;20070;-70
2023/06/25 02:17:04;;;;;;;18.90;13.10;;;17.40;89.70;;;;;;4972491;28;20049;-70
2023/06/25 02:19:30;;;;;;;18.97;12.63;;;17.40;90.40;;;;;;4988739;28;20044;-70
2023/06/25 02:21:55;;;;;;;14.77;11.70;;;17.40;90.70;;;;;;4973108;28;20290;-70
2023/06/25 02:24:21;;;;;;;16.03;12.87;;;17.30;90.70;;;;;;4974970;28;20035;-70
2023/06/25 02:26:47;;;;;;;16.67;12.27;;;17.30;91.00;;;;;;4980280;28;20081;-70
2023/06/25 02:29:12;;;;;;;15.27;11.97;;;17.30;91.10;;;;;;4971770;28;20101;-70
2023/06/25 02:31:38;;;;;;;16.70;12.40;;;17.30;90.80;;;;;;4992045;28;20047;-70
2023/06/25 02:34:04;;;;;;;17.53;12.93;;;17.20;90.60;;;;;;4974805;28;20039;-70
2023/06/25 02:36:30;;;;;;;18.17;12.53;;;17.30;90.70;;;;;;4996308;28;20503;-70
2023/06/25 02:38:55;;;;;;;18.03;13.67;;;17.20;90.20;;;;;;4958588;28;20348;-70
2023/06/25 02:41:21;;;;;;;17.90;12.57;;;17.20;90.50;;;;;;4976248;28;20108;-70
2023/06/25 02:43:47;;;;;;;16.97;13.30;;;17.20;90.60;;;;;;4986744;28;20431;-70
2023/06/25 02:46:12;;;;;;;16.90;13.20;;;17.20;91.20;;;;;;4995177;28;20133;-70
2023/06/25 02:48:42;;;;;;;19.77;13.50;;;17.10;90.80;;;;;;4987761;28;20035;-70
2023/06/25 02:51:09;;;;;;;22.50;13.10;;;17.10;90.90;;;;;;4972134;28;20086;-70
2023/06/25 02:53:34;;;;;;;19.23;12.67;;;17.10;90.90;;;;;;4979903;28;20281;-70
2023/06/25 02:56:00;;;;;;;21.70;13.63;;;17.10;90.90;;;;;;4971621;28;20310;-70
2023/06/25 02:58:26;;;;;;;17.27;13.03;;;17.10;90.70;;;;;;4972185;28;20039;-70
2023/06/25 03:00:51;;;;;;;21.27;14.20;;;17.00;90.80;;;;;;4989398;28;20529;-70
2023/06/25 03:03:17;;;;;;;19.67;13.13;;;17.10;91.10;;;;;;4973049;28;20522;-70
2023/06/25 03:05:43;;;;;;;22.30;14.50;;;17.00;90.70;;;;;;4992435;28;20537;-70
2023/06/25 03:08:08;;;;;;;18.13;14.10;;;17.00;90.80;;;;;;4969412;28;20101;-70
2023/06/25 03:10:37;;;;;;;17.77;13.07;;;17.00;90.90;;;;;;4988794;28;20038;-70
2023/06/25 03:13:06;;;;;;;16.80;13.77;;;17.00;91.20;;;;;;4971142;28;20495;-70
2023/06/25 03:15:32;;;;;;;16.47;13.20;;;17.00;90.70;;;;;;4973843;28;20286;-70
2023/06/25 03:17:58;;;;;;;16.47;12.77;;;17.00;91.00;;;;;;4972839;28;20298;-70
2023/06/25 03:20:24;;;;;;;18.53;13.30;;;17.00;91.00;;;;;;4974366;28;20045;-70
2023/06/25 03:22:49;;;;;;;18.00;13.03;;;17.00;91.50;;;;;;4990388;28;20180;-70
2023/06/25 03:25:15;;;;;;;16.80;12.67;;;17.00;91.20;;;;;;4969550;28;20050;-70
2023/06/25 03:27:41;;;;;;;16.43;12.50;;;17.00;91.50;;;;;;4969864;28;20038;-70
2023/06/25 03:30:07;;;;;;;17.97;12.20;;;17.00;91.20;;;;;;4985837;28;20219;-70
2023/06/25 03:32:33;;;;;;;20.07;13.60;;;17.00;91.20;;;;;;4990470;28;20050;-70
2023/06/25 03:34:59;;;;;;;18.27;12.87;;;17.00;91.40;;;;;;4995330;28;20273;-70
2023/06/25 03:37:25;;;;;;;16.23;13.30;;;17.00;91.50;;;;;;4974481;28;20047;-70
2023/06/25 03:39:51;;;;;;;17.10;13.17;;;17.00;91.30;;;;;;4977939;28;20041;-70
2023/06/25 03:42:17;;;;;;;16.33;13.30;;;17.10;90.80;;;;;;4985436;28;20290;-70
2023/06/25 03:44:48;;;;;;;16.47;12.50;;;17.10;91.40;;;;;;4971751;28;20065;-70
2023/06/25 03:47:14;;;;;;;19.47;14.03;;;17.10;91.10;;;;;;4971443;28;20529;-70
2023/06/25 03:49:40;;;;;;;16.57;13.47;;;17.10;91.00;;;;;;4971848;28;20393;-70
2023/06/25 03:52:06;;;;;;;19.57;13.67;;;17.20;90.90;;;;;;4987410;28;20043;-70
2023/06/25 03:54:31;;;;;;;19.53;13.00;;;17.20;90.90;;;;;;4958536;28;20050;-70
2023/06/25 03:56:57;;;;;;;17.23;13.27;;;17.20;90.80;;;;;;4973330;28;20302;-70
2023/06/25 03:59:23;;;;;;;17.77;12.40;;;17.20;90.60;;;;;;4974392;28;20085;-70
2023/06/25 04:01:49;;;;;;;18.67;12.87;;;17.20;90.30;;;;;;4974093;28;20471;-70
2023/06/25 04:04:14;;;;;;;18.63;14.33;;;17.30;90.10;;;;;;4981754;28;20117;-70
2023/06/25 04:06:40;;;;;;;15.87;13.27;;;17.30;89.90;;;;;;4977503;28;20054;-70
2023/06/25 04:09:06;;;;;;;20.33;13.97;;;17.30;89.90;;;;;;4990893;28;20049;-70
2023/06/25 04:11:31;;;;;;;20.00;13.50;;;17.40;89.70;;;;;;4961984;28;20487;-70
2023/06/25 04:13:57;;;;;;;20.40;12.90;;;17.40;89.60;;;;;;5002886;28;20042;-70
2023/06/25 04:16:23;;;;;;;16.93;13.03;;;17.40;89.40;;;;;;4959380;28;20105;-70
2023/06/25 04:18:48;;;;;;;15.23;12.10;;;17.50;89.50;;;;;;4954478;28;20038;-70
2023/06/25 04:21:14;;;;;;;18.97;13.13;;;17.50;89.50;;;;;;4987076;28;20030;-70
2023/06/25 04:23:40;;;;;;;19.97;13.30;;;17.50;89.20;;;;;;4970186;28;20053;-70
2023/06/25 04:26:06;;;;;;;16.43;13.33;;;17.60;89.10;;;;;;4955094;28;20039;-70
2023/06/25 04:28:31;;;;;;;18.50;13.87;;;17.60;89.00;;;;;;4954122;28;20368;-70
2023/06/25 04:30:57;;;;;;;18.53;13.30;;;17.60;88.70;;;;;;4987357;28;20056;-70
2023/06/25 04:33:23;;;;;;;20.07;12.50;;;17.70;88.50;;;;;;4989479;28;20081;-70
2023/06/25 04:35:48;;;;;;;16.70;13.07;;;17.70;88.40;;;;;;4977383;28;20070;-70
2023/06/25 04:38:15;;;;;;;19.00;13.97;;;18.00;89.10;;;;;;4982310;28;20077;-70
2023/06/25 04:40:41;;;;;;;17.17;12.93;;;18.50;88.20;;;;;;4963364;28;20184;-70
2023/06/25 04:43:06;;;;;;;16.33;13.10;;;19.10;86.30;;;;;;4999625;28;20617;-70
2023/06/25 04:45:32;;;;;;;16.90;12.50;;;19.70;84.60;;;;;;4981098;28;20050;-70
2023/06/25 04:47:58;;;;;;;18.13;12.63;;;20.10;82.30;;;;;;4989505;28;20043;-70
2023/06/25 04:50:23;;;;;;;17.10;12.53;;;20.40;81.50;;;;;;4974009;28;20058;-70
2023/06/25 04:52:49;;;;;;;16.23;12.87;;;21.00;78.80;;;;;;4973678;28;20051;-70
2023/06/25 04:55:15;;;;;;;17.87;12.33;;;21.30;76.20;;;;;;4952977;28;20053;-70
2023/06/25 04:57:40;;;;;;;15.57;12.20;;;21.60;75.50;;;;;;4987647;28;20250;-70
2023/06/25 05:00:07;;;;;;;15.13;11.63;;;22.00;74.70;;;;;;4991232;28;20070;-70
2023/06/25 05:02:32;;;;;;;15.87;11.93;;;22.60;73.10;;;;;;4981748;28;20053;-70
2023/06/25 05:04:58;;;;;;;16.03;11.87;;;23.00;71.30;;;;;;4963982;28;20494;-70
2023/06/25 05:07:24;;;;;;;14.63;11.63;;;23.50;69.60;;;;;;4980190;28;20038;-70
2023/06/25 05:09:49;;;;;;;13.07;10.93;;;23.90;68.10;;;;;;4977699;28;20046;-70
2023/06/25 05:12:15;;;;;;;14.83;11.33;;;24.20;66.60;;;;;;4967288;28;20520;-70
2023/06/25 05:14:42;;;;;;;13.30;10.77;;;24.60;65.30;;;;;;4980904;28;20450;-70
2023/06/25 05:17:07;;;;;;;12.80;10.73;;;24.90;64.50;;;;;;4979434;28;20042;-70
2023/06/25 05:19:33;;;;;;;13.00;10.03;;;25.20;63.60;;;;;;4989143;28;20046;-70
2023/06/25 05:21:59;;;;;;;15.00;10.73;;;25.60;62.30;;;;;;4975699;28;20026;-70
2023/06/25 05:24:24;;;;;;;14.43;11.13;;;25.80;60.80;;;;;;4991147;28;20398;-70
2023/06/25 05:26:50;;;;;;;14.10;10.57;;;26.10;60.40;;;;;;4987985;28;20050;-70
2023/06/25 05:29:16;;;;;;;12.93;10.97;;;26.30;59.40;;;;;;4986556;28;20054;-70
2023/06/25 05:31:41;;;;;;;14.23;11.23;;;26.40;58.90;;;;;;4995095;28;20043;-70
2023/06/25 05:34:07;;;;;;;14.50;10.67;;;26.50;58.50;;;;;;4980628;28;20035;-70
2023/06/25 05:36:33;;;;;;;11.27;9.57;;;26.50;57.90;;;;;;4985137;28;20044;-70
2023/06/25 05:38:59;;;;;;;12.47;10.20;;;26.60;57.90;;;;;;4982694;28;20039;-70
2023/06/25 05:41:24;;;;;;;11.50;10.00;;;26.60;57.20;;;;;;4984760;28;20569;-70
2023/06/25 05:43:50;;;;;;;13.17;10.73;;;26.60;57.10;;;;;;4982235;28;20031;-70
2023/06/25 05:46:16;;;;;;;14.03;10.43;;;26.70;56.80;;;;;;5000353;28;20050;-70
2023/06/25 05:48:44;;;;;;;12.63;9.97;;;26.90;56.30;;;;;;4956601;28;20125;-70
2023/06/25 05:51:09;;;;;;;15.17;9.90;;;27.10;55.20;;;;;;4974152;28;20073;-70
2023/06/25 05:53:40;;;;;;;12.33;10.00;;;27.20;54.90;;;;;;4990365;28;20282;-70
2023/06/25 05:56:07;;;;;;;13.90;9.77;;;27.20;55.00;;;;;;4957821;28;20039;-70
2023/06/25 05:58:34;;;;;;;10.87;9.20;;;27.10;55.20;;;;;;4989583;28;20035;-70
2023/06/25 06:01:00;;;;;;;11.57;9.87;;;26.60;56.00;;;;;;4965949;28;20399;-70
2023/06/25 06:03:26;;;;;;;11.53;9.70;;;26.30;57.10;;;;;;4977171;28;20030;-70
2023/06/25 06:05:54;;;;;;;11.43;9.03;;;26.30;57.10;;;;;;4983075;28;20510;-70
2023/06/25 06:08:19;;;;;;;11.20;8.93;;;26.60;56.30;;;;;;4976302;28;20411;-70
2023/06/25 06:10:45;;;;;;;11.27;8.40;;;27.00;55.50;;;;;;4966931;28;20235;-70
2023/06/25 06:13:11;;;;;;;11.00;8.93;;;27.20;54.50;;;;;;4986272;28;20487;-70
2023/06/25 06:15:36;;;;;;;13.60;8.63;;;27.50;53.50;;;;;;5005748;28;20042;-71
2023/06/25 06:18:02;;;;;;;11.33;9.57;;;27.70;53.40;;;;;;4992136;28;20108;-71
2023/06/25 06:20:28;;;;;;;9.90;8.63;;;27.90;52.50;;;;;;4976724;28;20046;-71
2023/06/25 06:22:53;;;;;;;12.30;9.23;;;28.00;52.40;;;;;;4990224;28;20043;-71
2023/06/25 06:25:19;;;;;;;10.77;8.83;;;28.00;52.40;;;;;;4977645;28;20042;-71
2023/06/25 06:27:45;;;;;;;12.43;9.30;;;28.00;52.60;;;;;;4975520;28;20486;-71
2023/06/25 06:30:11;;;;;;;12.00;8.37;;;28.00;52.30;;;;;;4992532;28;20186;-71
2023/06/25 06:32:37;;;;;;;9.73;8.40;;;28.00;51.90;;;;;;4961472;28;20065;-71
2023/06/25 06:35:03;;;;;;;10.93;9.23;;;28.00;52.30;;;;;;4985018;28;20406;-71
2023/06/25 06:37:28;;;;;;;13.17;9.23;;;28.10;52.10;;;;;;4996047;28;20043;-71
2023/06/25 06:39:55;;;;;;;13.43;10.43;;;28.20;52.20;;;;;;5001513;28;20058;-71
2023/06/25 06:42:21;;;;;;;11.57;10.30;;;28.30;51.50;;;;;;4971329;28;20051;-71
2023/06/25 06:44:46;;;;;;;13.37;10.23;;;28.00;51.50;;;;;;4977920;28;20065;-71
2023/06/25 06:47:12;;;;;;;11.30;10.10;;;27.90;51.60;;;;;;4955394;28;20043;-71
2023/06/25 06:49:38;;;;;;;13.40;10.50;;;27.90;52.10;;;;;;4972891;28;20063;-71
2023/06/25 06:52:04;;;;;;;13.37;11.23;;;27.80;52.50;;;;;;4972081;28;20047;-71
2023/06/25 06:54:30;;;;;;;12.03;10.63;;;27.60;52.70;;;;;;4987966;28;20074;-71
2023/06/25 06:56:55;;;;;;;13.20;11.07;;;27.60;53.20;;;;;;4972036;28;20118;-71
2023/06/25 06:59:21;;;;;;;12.97;11.43;;;27.60;53.40;;;;;;4993723;28;20064;-71
2023/06/25 07:01:46;;;;;;;15.30;12.33;;;27.60;53.80;;;;;;4978222;28;20658;-71
2023/06/25 07:04:12;;;;;;;13.80;11.00;;;27.40;54.00;;;;;;4982838;28;20611;-70
2023/06/25 07:06:38;;;;;;;12.37;11.07;;;27.30;54.30;;;;;;4983390;28;20049;-70
2023/06/25 07:09:04;;;;;;;12.63;11.10;;;27.30;55.00;;;;;;4968117;28;20050;-70
2023/06/25 07:11:29;;;;;;;12.43;10.83;;;27.20;55.20;;;;;;5002463;28;20077;-70
2023/06/25 07:13:55;;;;;;;13.60;12.20;;;27.20;55.70;;;;;;4973196;28;20082;-70
2023/06/25 07:16:21;;;;;;;13.37;11.70;;;26.90;55.80;;;;;;4972759;28;20038;-70
2023/06/25 07:18:46;;;;;;;13.40;11.63;;;26.80;56.10;;;;;;4971167;28;20518;-70
2023/06/25 07:21:12;;;;;;;13.57;12.17;;;26.70;57.00;;;;;;4987475;28;20114;-71
2023/06/25 07:23:38;;;;;;;14.40;11.27;;;26.60;57.40;;;;;;4990687;28;20153;-71
2023/06/25 07:26:04;;;;;;;14.40;11.40;;;26.50;57.80;;;;;;4972870;28;20042;-71
2023/06/25 07:28:29;;;;;;;13.83;12.43;;;26.40;58.30;;;;;;4974431;28;20042;-71
2023/06/25 07:30:55;;;;;;;12.30;11.00;;;26.40;58.70;;;;;;4953353;28;20117;-71
2023/06/25 07:33:21;;;;;;;13.90;12.50;;;26.40;58.60;;;;;;4992045;28;20042;-71
2023/06/25 07:35:46;;;;;;;11.60;10.50;;;26.40;58.70;;;;;;4953554;28;20534;-71
2023/06/25 07:38:12;;;;;;;13.17;11.37;;;26.40;58.40;;;;;;4973430;28;20497;-71
2023/06/25 07:40:38;;;;;;;14.40;12.17;;;26.50;58.20;;;;;;4964043;28;20034;-71
2023/06/25 07:43:04;;;;;;;14.87;12.73;;;26.60;58.00;;;;;;5001332;28;20667;-71
2023/06/25 07:45:29;;;;;;;12.63;10.83;;;26.70;57.40;;;;;;4976592;28;20049;-71
2023/06/25 07:47:56;;;;;;;12.17;10.73;;;26.80;56.90;;;;;;4973651;28;20270;-71
2023/06/25 07:50:22;;;;;;;12.30;10.93;;;26.90;57.00;;;;;;4976218;28;20489;-71
2023/06/25 07:52:47;;;;;;;15.87;11.40;;;27.00;57.20;;;;;;4955996;28;20058;-71
2023/06/25 07:55:13;;;;;;;13.93;10.10;;;27.10;56.40;;;;;;4970883;28;20058;-71
2023/06/25 07:57:39;;;;;;;16.53;10.00;;;27.20;56.70;;;;;;4976376;28;20144;-71
2023/06/25 08:00:06;;;;;;;11.60;10.20;;;27.30;55.80;;;;;;4957534;28;20050;-71
2023/06/25 08:02:31;;;;;;;10.77;9.77;;;27.40;55.10;;;;;;4980858;28;20038;-70
2023/06/25 08:04:57;;;;;;;11.33;9.70;;;27.40;55.50;;;;;;4977307;28;20462;-72
2023/06/25 08:07:23;;;;;;;13.00;10.07;;;27.40;56.00;;;;;;4964509;28;20170;-72
2023/06/25 08:09:49;;;;;;;10.47;8.47;;;27.50;56.30;;;;;;4975577;28;20466;-71
2023/06/25 08:12:15;;;;;;;9.57;8.57;;;27.60;56.40;;;;;;4977407;28;20048;-71
2023/06/25 08:14:40;;;;;;;10.53;9.00;;;27.70;55.20;;;;;;4965608;28;20081;-71
2023/06/25 08:17:06;;;;;;;11.50;8.90;;;27.80;54.40;;;;;;4972556;28;20414;-70
2023/06/25 08:19:32;;;;;;;10.03;8.60;;;27.90;54.10;;;;;;4973115;28;20101;-71
2023/06/25 08:21:58;;;;;;;13.17;8.20;;;28.00;53.80;;;;;;4973538;28;20541;-71
2023/06/25 08:24:24;;;;;;;8.73;7.90;;;28.10;54.00;;;;;;4972710;28;20081;-71
2023/06/25 08:26:49;;;;;;;10.23;7.33;;;28.20;53.00;;;;;;4957395;28;20046;-71
2023/06/25 08:29:15;;;;;;;8.70;7.67;;;28.20;53.20;;;;;;4958065;28;20042;-72
2023/06/25 08:31:41;;;;;;;7.80;7.10;;;28.30;51.80;;;;;;4974030;28;20483;-71
2023/06/25 08:34:07;;;;;;;8.00;6.80;;;28.30;52.50;;;;;;4988663;28;20113;-71
2023/06/25 08:36:33;;;;;;;8.97;6.80;;;28.30;52.00;;;;;;4991217;28;20034;-71
2023/06/25 08:38:58;;;;;;;5.90;5.30;;;28.40;51.50;;;;;;4974429;28;20047;-71
2023/06/25 08:41:26;;;;;;;7.50;6.73;;;28.60;50.80;;;;;;4993064;28;20177;-71
2023/06/25 08:43:53;;;;;;;10.97;5.50;;;28.60;50.60;;;;;;4990881;28;20054;-72
2023/06/25 08:46:22;;;;;;;8.73;5.23;;;28.70;50.30;;;;;;4960345;28;20326;-72
2023/06/25 08:48:52;;;;;;;6.73;5.60;;;28.80;49.30;;;;;;4962297;28;20042;-71
2023/06/25 08:51:22;;;;;;;8.43;5.40;;;28.80;49.00;;;;;;4966661;28;20050;-71
2023/06/25 08:53:48;;;;;;;7.60;4.93;;;28.90;48.80;;;;;;4974446;28;20046;-71
2023/06/25 08:56:18;;;;;;;6.70;5.10;;;28.90;48.70;;;;;;4970931;28;20042;-71
2023/06/25 08:58:44;;;;;;;5.73;5.13;;;29.00;47.80;;;;;;4975150;28;20117;-72
2023/06/25 09:01:12;;;;;;;5.73;5.13;;;29.00;48.50;;;;;;4958552;28;20042;-71
2023/06/25 09:03:42;;;;;;;6.10;4.83;;;29.10;48.50;;;;;;4980933;28;20045;-71
2023/06/25 09:06:15;;;;;;;6.30;4.43;;;29.30;48.70;;;;;;4973938;28;20084;-72
2023/06/25 09:08:45;;;;;;;7.53;5.03;;;29.40;47.70;;;;;;4979727;28;20376;-72
2023/06/25 09:11:11;;;;;;;6.63;5.17;;;29.50;47.20;;;;;;4979891;28;20046;-72
2023/06/25 09:13:38;;;;;;;7.43;4.70;;;29.60;46.70;;;;;;4969713;28;20065;-72
2023/06/25 09:16:07;;;;;;;5.80;4.63;;;29.60;47.20;;;;;;4970234;28;20043;-72
2023/06/25 09:18:34;;;;;;;5.03;4.53;;;29.70;46.10;;;;;;4969634;28;20494;-71
2023/06/25 09:21:04;;;;;;;6.73;4.10;;;29.70;46.90;;;;;;4954193;28;20035;-71
2023/06/25 09:23:30;;;;;;;8.17;4.83;;;29.80;46.00;;;;;;4989903;28;20121;-71
2023/06/25 09:25:56;;;;;;;5.47;4.30;;;29.80;45.30;;;;;;4986288;28;20101;-71
2023/06/25 09:28:22;;;;;;;4.53;3.97;;;29.80;45.00;;;;;;4965920;28;20066;-72
2023/06/25 09:30:48;;;;;;;5.13;3.83;;;29.90;45.40;;;;;;4981922;28;20038;-72
2023/06/25 09:33:15;;;;;;;5.43;4.30;;;29.90;45.10;;;;;;4972927;28;20039;-72
2023/06/25 09:35:41;;;;;;;7.00;4.50;;;30.00;45.20;;;;;;4970667;28;20041;-72
2023/06/25 09:38:07;;;;;;;4.90;4.40;;;30.10;45.90;;;;;;4974432;28;20410;-72
2023/06/25 09:40:33;;;;;;;5.80;4.97;;;30.20;45.30;;;;;;4953896;28;20125;-71
2023/06/25 09:43:00;;;;;;;5.90;4.73;;;30.30;45.50;;;;;;4966929;28;20134;-71
2023/06/25 09:45:27;;;;;;;6.53;4.10;;;30.40;44.60;;;;;;4964959;28;20030;-72
2023/06/25 09:47:55;;;;;;;5.53;4.37;;;30.50;44.90;;;;;;4968032;28;20108;-72
2023/06/25 09:50:47;;;;;;;8.37;4.13;;;30.50;44.10;;;;;;4971513;28;20499;-72
2023/06/25 09:53:19;;;;;;;7.90;4.23;;;30.50;44.70;;;;;;4982245;28;20070;-72
2023/06/25 09:55:45;;;;;;;9.13;4.87;;;30.60;44.40;;;;;;4987992;28;20046;-71
2023/06/25 09:58:12;;;;;;;7.83;4.37;;;30.60;44.20;;;;;;4989688;28;20065;-72
2023/06/25 10:00:38;;;;;;;6.03;4.50;;;30.60;44.20;;;;;;4980322;28;20050;-72
2023/06/25 10:03:04;;;;;;;4.50;4.00;;;30.60;43.30;;;;;;4976099;28;20035;-72
2023/06/25 10:05:31;;;;;;;5.27;4.60;;;30.60;43.60;;;;;;4992286;28;20114;-72
2023/06/25 10:07:58;;;;;;;6.70;4.63;;;30.60;43.40;;;;;;4982956;28;20062;-71
2023/06/25 10:10:27;;;;;;;4.47;3.80;;;30.70;43.50;;;;;;4955045;28;20198;-71
2023/06/25 10:12:53;;;;;;;4.70;4.13;;;30.80;43.70;;;;;;4953004;28;20050;-71
2023/06/25 10:15:29;;;;;;;5.00;3.93;;;30.90;44.10;;;;;;4975330;28;20041;-71
2023/06/25 10:17:57;;;;;;;5.43;4.40;;;31.00;44.60;;;;;;4964421;28;20057;-72
2023/06/25 10:20:27;;;;;;;4.83;4.17;;;31.20;43.40;;;;;;4975264;28;20520;-72
2023/06/25 10:23:08;;;;;;;5.10;3.93;;;31.20;43.40;;;;;;4992010;28;20035;-71
2023/06/25 10:25:36;;;;;;;5.73;3.80;;;31.20;44.10;;;;;;4984412;28;20043;-71
2023/06/25 10:28:13;;;;;;;5.60;4.13;;;31.30;44.20;;;;;;4991361;28;20049;-71
2023/06/25 10:30:49;;;;;;;6.10;3.83;;;31.30;43.40;;;;;;4962245;28;20042;-71
2023/06/25 10:33:17;;;;;;;5.27;3.23;;;31.30;42.00;;;;;;4973796;28;20056;-71
2023/06/25 10:35:47;;;;;;;5.73;3.43;;;31.40;41.50;;;;;;4969410;28;20043;-71
2023/06/25 10:38:13;;;;;;;4.13;3.73;;;31.40;41.00;;;;;;4987525;28;20063;-71
2023/06/25 10:40:41;;;;;;;4.50;3.07;;;31.40;41.10;;;;;;4956023;28;20038;-71
2023/06/25 10:43:07;;;;;;;4.40;3.17;;;31.30;40.80;;;;;;4978704;28;20089;-71
2023/06/25 10:45:33;;;;;;;4.80;3.70;;;31.20;40.80;;;;;;4972287;28;20132;-70
2023/06/25 10:48:12;;;;;;;3.87;3.27;;;31.10;40.80;;;;;;4974668;28;20512;-71
2023/06/25 10:50:38;;;;;;;5.10;3.80;;;31.10;40.90;;;;;;4989775;28;20061;-72
2023/06/25 10:53:12;;;;;;;3.60;3.30;;;31.10;40.80;;;;;;4971152;28;20054;-71
2023/06/25 10:55:39;;;;;;;4.80;3.40;;;31.20;40.40;;;;;;4968258;28;20074;-71
2023/06/25 10:58:04;;;;;;;5.10;3.37;;;31.30;39.20;;;;;;4970772;28;20042;-71
2023/06/25 11:00:31;;;;;;;3.90;2.97;;;31.40;39.30;;;;;;4972372;28;20045;-71
2023/06/25 11:03:00;;;;;;;5.17;3.30;;;31.40;40.10;;;;;;4972753;28;20514;-71
2023/06/25 11:05:40;;;;;;;5.73;3.17;;;31.50;39.30;;;;;;4971296;28;20039;-71
2023/06/25 11:08:07;;;;;;;4.07;3.33;;;31.50;38.30;;;;;;4969910;28;20051;-71
2023/06/25 11:10:35;;;;;;;4.53;3.30;;;31.50;38.00;;;;;;4980168;28;20046;-71
2023/06/25 11:13:01;;;;;;;5.57;3.40;;;31.50;37.60;;;;;;4974868;28;20050;-71
2023/06/25 11:15:32;;;;;;;7.53;3.60;;;31.60;38.40;;;;;;4971188;28;20053;-71
2023/06/25 11:18:00;;;;;;;6.80;3.75;;;31.60;37.60;;;;;;4974051;28;20043;-71
2023/06/25 11:20:27;;;;;;;6.07;3.57;;;31.60;37.60;;;;;;4956694;28;20379;-71
2023/06/25 11:22:58;;;;;;;4.73;3.53;;;31.60;37.60;;;;;;4973022;28;20065;-72
2023/06/25 11:25:25;;;;;;;5.07;3.43;;;31.60;38.50;;;;;;4976278;28;20054;-72
2023/06/25 11:28:20;;;;;;;4.40;3.05;;;31.60;37.40;;;;;;4970257;28;20105;-72
2023/06/25 11:30:46;;;;;;;5.13;3.93;;;31.60;37.70;;;;;;4965650;28;20055;-72
2023/06/25 11:33:17;;;;;;;5.13;3.43;;;31.60;36.90;;;;;;4961270;28;20100;-72
2023/06/25 11:35:49;;;;;;;6.43;3.90;;;31.60;37.10;;;;;;4965581;28;20046;-72
2023/06/25 11:38:28;;;;;;;4.07;3.33;;;31.50;36.50;;;;;;4979339;28;20340;-72
2023/06/25 11:40:57;;;;;;;5.23;3.83;;;31.50;37.40;;;;;;4961186;28;20218;-72
2023/06/25 11:43:23;;;;;;;5.67;3.73;;;31.60;37.60;;;;;;4963020;28;20518;-72
2023/06/25 11:45:49;;;;;;;4.97;3.90;;;31.60;38.10;;;;;;4965049;28;20079;-72
2023/06/25 11:48:16;;;;;;;7.67;3.70;;;31.70;36.60;;;;;;4962258;28;20050;-72
2023/06/25 11:50:43;;;;;;;4.90;3.80;;;31.70;37.40;;;;;;4962773;28;20168;-72
2023/06/25 11:53:09;;;;;;;5.13;3.40;;;31.70;35.90;;;;;;4971796;28;20043;-72
2023/06/25 11:55:35;;;;;;;5.87;3.83;;;31.80;36.10;;;;;;4973480;28;20113;-72
2023/06/25 11:58:01;;;;;;;5.97;4.27;;;31.80;35.30;;;;;;4967100;28;20054;-72
2023/06/25 12:00:27;;;;;;;5.97;3.77;;;31.90;36.40;;;;;;4970334;28;20347;-72
2023/06/25 12:02:52;;;;;;;5.40;3.47;;;31.90;36.40;;;;;;4969449;28;20030;-73
2023/06/25 12:05:18;;;;;;;4.63;3.80;;;32.00;36.40;;;;;;4987371;28;20054;-72
2023/06/25 12:07:44;;;;;;;5.90;4.00;;;32.00;37.30;;;;;;4964913;28;20528;-72
2023/06/25 12:10:10;;;;;;;6.27;3.80;;;31.90;36.70;;;;;;4962698;28;20047;-72
2023/06/25 12:12:36;;;;;;;4.73;4.03;;;32.00;36.90;;;;;;4966246;28;20403;-72
2023/06/25 12:15:03;;;;;;;5.00;3.75;;;32.10;37.00;;;;;;4956408;28;20050;-72
2023/06/25 12:17:28;;;;;;;4.55;3.75;;;32.20;36.80;;;;;;4963802;28;20035;-72
2023/06/25 12:19:54;;;;;;;5.70;3.60;;;32.20;37.00;;;;;;4971364;28;20165;-72
2023/06/25 12:22:20;;;;;;;5.22;3.70;;;32.30;36.40;;;;;;4973365;28;20047;-73
2023/06/25 12:24:45;;;;;;;4.32;3.63;;;32.30;36.80;;;;;;4948737;28;20030;-72
2023/06/25 12:27:11;;;;;;;5.23;3.90;;;32.40;36.80;;;;;;4987401;28;20042;-72
2023/06/25 12:29:37;;;;;;;5.38;3.33;;;32.30;36.70;;;;;;4979730;28;20070;-73
2023/06/25 12:32:03;;;;;;;6.77;3.70;;;32.30;37.20;;;;;;4972018;28;20039;-72
2023/06/25 12:34:29;;;;;;;5.15;4.20;;;32.20;35.90;;;;;;4964447;28;20042;-72